Norfolk, Virginia
Traffic Map
Current Weather Conditions
Norfolk, Virginia
Overcast Light Rain
Overcast
22°
Feels Like: 22°
Wind Chill: 22° Ceiling: 3800
Heat Index: 22° Visibility: 8mi
Dew Point: 21° Wind: 13mph
Humidity: 91% Direction: 60° (ENE)
Pressure: 29.77in Gusts: 0mph
Raw Report DataKORF 281851Z 06011KT 8SM -RA FEW015 BKN038 OVC060 22/21 A2977 RMK AO2 RAB1758E33B45 PRESFR SLP081 P0030 T02220206
Traffic Incident Summary
Active as of:
Severity:
Category:
InformationThere was an issue retrieving the traffic information for this location. Please try a different location or try again shortly.
Advertisements
Track Severe Weather on mobile